Saint Peters, Prince Edward Island

1:02 AM ADT on July 08, 2015 (GMT -0300)
Cardigan Head | | Change Station
CLOSE
Current Station
Personal Weather Station
Location: Cardigan, PRINCE EDWARD ISLAND
Elevation: 45 ft
Nearby Weather Stations

Elev 45 ft 46.25 °N, 62.68 °W | Updated 2 minutes ago

Mostly Cloudy
Mostly Cloudy
63.8 °F
Feels Like 63.8 °F
N
1.0
Wind Variable Wind from SW
Gusts 6.0 mph

Today is forecast to be nearly the same temperature as yesterday.

Today
High -- | Low -- °F
--% Chance of Precip.
Yesterday
High -- | Low -- °F
Precip. -- in
5:26 AM 9:04 PM
Waning Gibbous, 58% visible
Pressure 30.03 in
Visibility 15.0 miles
Clouds Mostly Cloudy 26000 ft
Dew Point 58 °F
Humidity 83%
Rainfall 0.00 in
Snow Depth Not available.
UV 0 out of 12
Pollen Not available.
Air Quality Not available.
Flu Activity Not available.
METAR CYYG 080300Z 19010KT 15SM BKN260 19/15 A3002 RMK CI6 SLP167 DENSITY ALT 500FT

More Conditions Fewer Conditions

Pressure 30.03 in
Visibility 15.0 miles
Clouds Mostly Cloudy 26000 ft
Dew Point 58 °F
Humidity 83%
Rainfall 0.00 in
Snow Depth Not available.
UV 0 out of 12
Pollen Not available.
Air Quality Not available.
Flu Activity Not available.
METAR CYYG 080300Z 19010KT 15SM BKN260 19/15 A3002 RMK CI6 SLP167 DENSITY ALT 500FT

More Conditions Fewer Conditions

10-Day Weather Forecast

×

Almanac

Astronomy

Jul. 08, 2015 Rise Set
Actual Time
Civil Twilight
Nautical Twilight
Astronomical Twilight
Moon
Length of Visible Light
Length of Day
Tomorrow will be .
, % of the Moon is Illuminated

Today's Extremes

Country Highs Country Lows

Community

WunderPhotos

Upload Photos

1,836,048 photos uploaded!

WunderBlogs® & News

Nearby

Air Quality

  Air Quality AQ Index Pollutant
Not available.

Snow Depth

Station Depth Elevation

Earthquake Activity

City Distance Mag. Time & Date
Minimum magnitude displayed is 2.5.

Coastal Water Temperatures

Place Temperature

Stations

Nearby Weather Stations

Station Location Temp. Windchill Dew Point Humidity Wind Precip. Elev Updated Type